Time;durP1;ratioP1;P1;durP2;ratioP2;P2;SDS_P1;SDS_P2;PMS_P1;PMS_P2;Temp;Humidity;BMP_temperature;BMP_pressure;BME280_temperature;BME280_humidity;BME280_pressure;Samples;Min_cycle;Max_cycle;Signal;HPM_P1;HPM_P2
2021/07/19 00:03:17;;;;;;;9.18;4.55;;;;;;;;;;5035880;28;20056;-58
2021/07/19 00:05:42;;;;;;;12.13;4.15;;;;;;;;;;5034172;28;20036;-58
2021/07/19 00:08:08;;;;;;;14.43;4.05;;;;;;;;;;5034816;28;20035;-58
2021/07/19 00:10:36;;;;;;;9.98;4.40;;;;;;;;;;5034722;28;20463;-58
2021/07/19 00:13:04;;;;;;;11.45;4.40;;;;;;;;;;5016583;28;20028;-58
2021/07/19 00:15:32;;;;;;;9.35;3.90;;;;;;;;;;5033598;28;20036;-59
2021/07/19 00:17:58;;;;;;;19.92;4.85;;;;;;;;;;5035506;28;20025;-59
2021/07/19 00:20:28;;;;;;;12.05;4.72;;;;;;;;;;5034840;28;20052;-59
2021/07/19 00:22:54;;;;;;;10.40;4.13;;;;;;;;;;5038694;28;20047;-59
2021/07/19 00:25:20;;;;;;;10.45;4.32;;;;;;;;;;5050143;28;20108;-59
2021/07/19 00:27:53;;;;;;;8.00;4.05;;;;;;;;;;5035073;28;20040;-58
2021/07/19 00:30:24;;;;;;;7.30;3.90;;;;;;;;;;5021156;28;20366;-57
2021/07/19 00:32:52;;;;;;;14.05;4.40;;;;;;;;;;5050303;28;22052;-59
2021/07/19 00:35:21;;;;;;;9.27;3.83;;;;;;;;;;5035440;28;20653;-59
2021/07/19 00:37:47;;;;;;;13.68;5.18;;;;;;;;;;5034646;28;20040;-58
2021/07/19 00:40:17;;;;;;;11.00;4.25;;;;;;;;;;5041975;28;20025;-58
2021/07/19 00:42:46;;;;;;;14.00;4.07;;;;;;;;;;5033979;28;20146;-59
2021/07/19 00:45:24;;;;;;;15.27;4.35;;;;;;;;;;5030312;28;20653;-59
2021/07/19 00:47:52;;;;;;;13.02;4.50;;;;;;;;;;5032786;28;20029;-59
2021/07/19 00:50:20;;;;;;;7.95;3.70;;;;;;;;;;5033093;28;20115;-59
2021/07/19 00:52:49;;;;;;;8.30;3.90;;;;;;;;;;5034660;28;20032;-59
2021/07/19 00:55:19;;;;;;;6.70;3.58;;;;;;;;;;5034320;28;20503;-59
2021/07/19 00:57:48;;;;;;;7.15;3.75;;;;;;;;;;5034147;28;20111;-59
2021/07/19 01:00:18;;;;;;;14.48;3.88;;;;;;;;;;5033717;28;20029;-59
2021/07/19 01:02:46;;;;;;;13.80;4.30;;;;;;;;;;5038359;28;20130;-58
2021/07/19 01:05:11;;;;;;;12.18;4.30;;;;;;;;;;5032375;28;20036;-59
2021/07/19 01:07:38;;;;;;;9.35;3.67;;;;;;;;;;5033494;28;20036;-59
2021/07/19 01:10:14;;;;;;;11.02;3.53;;;;;;;;;;5032480;28;20021;-58
2021/07/19 01:12:51;;;;;;;15.55;4.15;;;;;;;;;;5033957;28;20067;-58
2021/07/19 01:15:19;;;;;;;9.00;3.92;;;;;;;;;;5034007;28;20045;-59
2021/07/19 01:17:44;;;;;;;16.08;3.92;;;;;;;;;;5036412;28;22057;-59
2021/07/19 01:20:13;;;;;;;15.13;4.18;;;;;;;;;;5037543;28;20055;-59
2021/07/19 01:23:11;;;;;;;12.30;3.63;;;;;;;;;;5034515;28;20132;-60
2021/07/19 01:25:45;;;;;;;11.18;3.90;;;;;;;;;;5000378;28;20047;-60
2021/07/19 01:28:16;;;;;;;11.32;3.63;;;;;;;;;;5036416;28;20070;-59
2021/07/19 01:30:44;;;;;;;8.63;3.75;;;;;;;;;;5038878;28;20041;-59
2021/07/19 01:33:13;;;;;;;11.75;4.05;;;;;;;;;;5038766;28;20025;-59
2021/07/19 01:35:44;;;;;;;11.27;4.03;;;;;;;;;;5039476;28;20698;-60
2021/07/19 01:38:11;;;;;;;9.00;3.58;;;;;;;;;;5038615;28;20068;-59
2021/07/19 01:40:39;;;;;;;9.95;3.67;;;;;;;;;;5022209;28;20032;-59
2021/07/19 01:43:05;;;;;;;6.70;3.55;;;;;;;;;;5037835;28;20132;-59
2021/07/19 01:45:34;;;;;;;11.32;4.18;;;;;;;;;;5037868;28;20118;-60
2021/07/19 01:48:00;;;;;;;12.27;3.70;;;;;;;;;;5038076;28;20020;-59
2021/07/19 01:50:28;;;;;;;16.65;4.55;;;;;;;;;;5038546;28;20033;-60
2021/07/19 01:52:54;;;;;;;11.05;3.75;;;;;;;;;;5038508;28;20037;-59
2021/07/19 01:55:25;;;;;;;12.88;3.60;;;;;;;;;;5037837;28;20029;-60
2021/07/19 01:57:51;;;;;;;8.73;3.90;;;;;;;;;;5053128;28;20078;-59
2021/07/19 02:00:19;;;;;;;15.38;4.53;;;;;;;;;;5037366;28;20024;-59
2021/07/19 02:02:45;;;;;;;7.75;3.55;;;;;;;;;;5038577;28;20045;-58
2021/07/19 02:05:13;;;;;;;15.50;4.53;;;;;;;;;;5037933;28;20027;-60
2021/07/19 02:07:41;;;;;;;8.55;3.72;;;;;;;;;;5037026;28;20033;-59
2021/07/19 02:10:11;;;;;;;16.50;4.00;;;;;;;;;;5039599;28;20033;-59
2021/07/19 02:12:44;;;;;;;19.35;4.30;;;;;;;;;;5035184;28;22299;-59
2021/07/19 02:15:14;;;;;;;10.85;4.28;;;;;;;;;;5034805;28;20078;-58
2021/07/19 02:17:48;;;;;;;8.95;3.78;;;;;;;;;;5038516;28;20028;-58
2021/07/19 02:20:17;;;;;;;9.07;4.38;;;;;;;;;;5039052;28;20047;-58
2021/07/19 02:22:46;;;;;;;9.88;4.55;;;;;;;;;;5038910;28;20032;-60
2021/07/19 02:25:13;;;;;;;10.63;4.78;;;;;;;;;;5026067;28;20484;-59
2021/07/19 02:27:42;;;;;;;15.75;5.78;;;;;;;;;;5051236;28;20368;-59
2021/07/19 02:30:14;;;;;;;15.48;4.20;;;;;;;;;;5036611;28;20029;-60
2021/07/19 02:32:43;;;;;;;15.85;4.22;;;;;;;;;;5054684;28;20121;-59
2021/07/19 02:35:12;;;;;;;9.13;4.25;;;;;;;;;;5056287;28;20013;-59
2021/07/19 02:37:41;;;;;;;16.40;5.18;;;;;;;;;;5061636;28;20052;-60
2021/07/19 02:40:12;;;;;;;10.30;3.58;;;;;;;;;;5061561;28;20769;-58
2021/07/19 02:42:41;;;;;;;9.93;4.28;;;;;;;;;;5046178;28;20076;-59
2021/07/19 02:45:10;;;;;;;17.30;4.25;;;;;;;;;;5057258;28;20021;-59
2021/07/19 02:47:36;;;;;;;11.55;4.18;;;;;;;;;;5057756;28;20090;-60
2021/07/19 02:53:40;;;;;;;8.23;3.83;;;;;;;;;;5058367;28;20032;-60
2021/07/19 02:56:06;;;;;;;9.38;3.85;;;;;;;;;;5057961;28;20470;-59
2021/07/19 02:58:34;;;;;;;11.98;4.82;;;;;;;;;;5054752;28;20025;-60
2021/07/19 03:01:00;;;;;;;14.93;4.65;;;;;;;;;;5051002;28;20396;-59
2021/07/19 03:03:27;;;;;;;10.20;5.07;;;;;;;;;;5053587;28;20044;-59
2021/07/19 03:06:14;;;;;;;16.85;5.10;;;;;;;;;;5052154;28;20028;-58
2021/07/19 03:08:40;;;;;;;18.38;5.75;;;;;;;;;;5054831;28;20045;-59
2021/07/19 03:11:23;;;;;;;12.23;4.68;;;;;;;;;;5053720;28;20127;-59
2021/07/19 03:13:51;;;;;;;10.60;4.32;;;;;;;;;;5050355;28;20032;-58
2021/07/19 03:16:22;;;;;;;17.00;5.78;;;;;;;;;;5074928;28;20372;-59
2021/07/19 03:18:54;;;;;;;19.67;5.13;;;;;;;;;;5057266;28;20104;-59
2021/07/19 03:21:22;;;;;;;20.00;5.38;;;;;;;;;;5072809;28;20090;-59
2021/07/19 03:23:51;;;;;;;15.68;5.53;;;;;;;;;;5058590;28;20135;-60
2021/07/19 03:26:35;;;;;;;10.88;4.97;;;;;;;;;;5052414;28;20511;-59
2021/07/19 03:29:04;;;;;;;14.32;5.78;;;;;;;;;;5058611;28;20115;-59
2021/07/19 03:31:33;;;;;;;14.48;5.22;;;;;;;;;;5052394;28;20464;-59
2021/07/19 03:33:59;;;;;;;16.23;5.82;;;;;;;;;;5056600;28;20032;-59
2021/07/19 03:36:28;;;;;;;15.85;5.13;;;;;;;;;;5061474;28;20060;-59
2021/07/19 03:38:56;;;;;;;14.32;6.25;;;;;;;;;;5061879;28;20031;-59
2021/07/19 03:41:24;;;;;;;16.35;6.15;;;;;;;;;;5057951;28;20024;-59
2021/07/19 03:43:54;;;;;;;16.92;5.00;;;;;;;;;;5058931;28;20071;-59
2021/07/19 03:46:23;;;;;;;18.70;5.43;;;;;;;;;;5072683;28;20417;-59
2021/07/19 03:48:49;;;;;;;14.18;5.75;;;;;;;;;;5054158;28;20039;-60
2021/07/19 03:51:20;;;;;;;14.95;5.88;;;;;;;;;;5054632;28;20029;-60
2021/07/19 03:53:51;;;;;;;9.80;4.82;;;;;;;;;;5040304;28;20032;-59
2021/07/19 03:56:17;;;;;;;13.05;4.70;;;;;;;;;;5051458;28;20032;-60
2021/07/19 03:58:44;;;;;;;17.40;5.70;;;;;;;;;;5057892;28;20059;-61
2021/07/19 04:01:10;;;;;;;13.75;6.13;;;;;;;;;;5038443;28;20040;-60
2021/07/19 04:03:46;;;;;;;12.82;5.82;;;;;;;;;;5062540;28;20044;-60
2021/07/19 04:06:14;;;;;;;17.15;5.57;;;;;;;;;;5054050;28;20104;-59
2021/07/19 04:08:50;;;;;;;14.60;5.57;;;;;;;;;;5054832;28;20037;-59
2021/07/19 04:11:19;;;;;;;17.20;5.15;;;;;;;;;;5050106;28;20383;-59
2021/07/19 04:13:45;;;;;;;13.15;5.30;;;;;;;;;;5031095;28;20037;-59
2021/07/19 04:16:14;;;;;;;13.40;5.38;;;;;;;;;;5054613;28;20037;-59
2021/07/19 04:18:40;;;;;;;14.95;4.88;;;;;;;;;;5051860;28;20409;-60
2021/07/19 04:21:06;;;;;;;12.88;4.45;;;;;;;;;;5055098;28;20102;-58
2021/07/19 04:23:34;;;;;;;10.13;3.75;;;;;;;;;;5053581;28;20029;-59
2021/07/19 04:26:00;;;;;;;12.07;3.95;;;;;;;;;;5049281;28;20040;-59
2021/07/19 04:28:27;;;;;;;20.70;4.47;;;;;;;;;;5052426;28;20802;-59
2021/07/19 04:30:57;;;;;;;12.05;3.75;;;;;;;;;;5053621;28;20029;-60
2021/07/19 04:33:25;;;;;;;12.73;4.45;;;;;;;;;;5053326;28;20479;-60
2021/07/19 04:35:51;;;;;;;13.65;3.90;;;;;;;;;;5038434;28;20048;-58
2021/07/19 04:38:22;;;;;;;6.78;3.30;;;;;;;;;;5049758;28;20362;-59
2021/07/19 04:40:50;;;;;;;10.32;3.60;;;;;;;;;;5048836;28;20123;-59
2021/07/19 04:43:18;;;;;;;10.40;3.10;;;;;;;;;;5053964;28;20044;-60
2021/07/19 04:45:46;;;;;;;9.65;3.03;;;;;;;;;;5050757;28;20036;-60
2021/07/19 04:48:17;;;;;;;13.43;3.53;;;;;;;;;;5053035;28;20029;-60
2021/07/19 04:50:42;;;;;;;9.25;2.67;;;;;;;;;;5059547;28;20089;-59
2021/07/19 04:53:14;;;;;;;12.77;2.70;;;;;;;;;;5061851;28;20020;-59
2021/07/19 04:55:49;;;;;;;10.18;2.83;;;;;;;;;;5045997;28;20491;-59
2021/07/19 04:58:21;;;;;;;8.18;3.33;;;;;;;;;;5055718;28;20021;-59
2021/07/19 05:00:54;;;;;;;12.07;2.72;;;;;;;;;;5061864;28;20029;-60
2021/07/19 05:03:21;;;;;;;6.03;2.40;;;;;;;;;;5058644;28;20155;-59
2021/07/19 05:05:47;;;;;;;4.50;2.80;;;;;;;;;;5057370;28;20122;-59
2021/07/19 05:08:18;;;;;;;12.60;2.85;;;;;;;;;;5059031;28;20120;-59
2021/07/19 05:10:47;;;;;;;8.45;2.88;;;;;;;;;;5043812;28;20040;-60
2021/07/19 05:13:18;;;;;;;7.80;3.13;;;;;;;;;;5062534;28;20113;-60
2021/07/19 05:15:44;;;;;;;10.82;2.67;;;;;;;;;;5058637;28;20406;-59
2021/07/19 05:18:15;;;;;;;6.68;2.80;;;;;;;;;;5059167;28;20033;-60
2021/07/19 05:20:44;;;;;;;7.32;2.58;;;;;;;;;;5064883;28;20049;-59
2021/07/19 05:23:22;;;;;;;7.32;2.70;;;;;;;;;;5060827;28;20047;-60
2021/07/19 05:25:53;;;;;;;10.73;2.85;;;;;;;;;;5058023;28;20082;-60
2021/07/19 05:28:18;;;;;;;13.95;2.70;;;;;;;;;;5044249;28;20044;-60
2021/07/19 05:30:50;;;;;;;9.20;2.72;;;;;;;;;;5063534;28;20687;-60
2021/07/19 05:33:18;;;;;;;8.15;2.67;;;;;;;;;;5058157;28;20543;-59
2021/07/19 05:35:46;;;;;;;8.20;2.35;;;;;;;;;;5059219;28;20075;-60
2021/07/19 05:38:15;;;;;;;5.25;2.55;;;;;;;;;;5045778;28;20037;-60
2021/07/19 05:40:41;;;;;;;10.18;2.20;;;;;;;;;;5059965;28;20098;-60
2021/07/19 05:43:13;;;;;;;10.40;2.15;;;;;;;;;;5033774;28;20488;-60
2021/07/19 05:45:39;;;;;;;7.15;2.35;;;;;;;;;;5072132;28;20027;-60
2021/07/19 05:48:07;;;;;;;6.90;2.30;;;;;;;;;;5057286;28;20044;-59
2021/07/19 05:50:35;;;;;;;5.53;2.22;;;;;;;;;;5057482;28;20036;-61
2021/07/19 05:53:07;;;;;;;10.05;2.20;;;;;;;;;;5056804;28;20514;-59
2021/07/19 05:55:34;;;;;;;7.28;2.78;;;;;;;;;;5056492;28;20613;-60
2021/07/19 05:57:59;;;;;;;8.82;2.35;;;;;;;;;;5057241;28;20033;-60
2021/07/19 06:00:25;;;;;;;15.48;3.13;;;;;;;;;;5055351;28;20480;-60
2021/07/19 06:02:51;;;;;;;7.70;2.03;;;;;;;;;;5056360;28;20110;-60
2021/07/19 06:05:19;;;;;;;10.32;2.58;;;;;;;;;;5055336;28;20039;-60
2021/07/19 06:07:47;;;;;;;8.00;2.28;;;;;;;;;;5057480;28;20050;-61
2021/07/19 06:10:13;;;;;;;7.05;2.10;;;;;;;;;;5055062;28;20021;-59
2021/07/19 06:12:40;;;;;;;5.78;2.22;;;;;;;;;;5057633;28;20456;-60
2021/07/19 06:15:12;;;;;;;9.77;2.17;;;;;;;;;;5049477;28;20025;-60
2021/07/19 06:17:37;;;;;;;7.95;2.30;;;;;;;;;;5043276;28;20052;-60
2021/07/19 06:20:29;;;;;;;10.88;2.05;;;;;;;;;;5054174;28;20914;-61
2021/07/19 06:23:02;;;;;;;7.43;2.15;;;;;;;;;;5051383;28;20187;-60
2021/07/19 06:25:29;;;;;;;7.10;2.42;;;;;;;;;;5056734;28;20056;-60
2021/07/19 06:27:55;;;;;;;9.23;2.53;;;;;;;;;;5037723;28;20071;-60
2021/07/19 06:30:21;;;;;;;9.93;2.60;;;;;;;;;;5035052;28;20533;-61
2021/07/19 06:32:49;;;;;;;5.50;2.05;;;;;;;;;;5037210;28;20020;-60
2021/07/19 06:35:17;;;;;;;6.20;2.25;;;;;;;;;;5044776;28;20040;-60
2021/07/19 06:37:48;;;;;;;7.72;2.38;;;;;;;;;;5036112;28;20117;-59
2021/07/19 06:40:16;;;;;;;10.40;2.33;;;;;;;;;;5028324;28;20155;-59
2021/07/19 06:42:42;;;;;;;7.03;2.60;;;;;;;;;;5036302;28;20032;-59
2021/07/19 06:45:09;;;;;;;8.82;2.10;;;;;;;;;;5035343;28;22175;-60
2021/07/19 06:47:40;;;;;;;6.43;2.10;;;;;;;;;;5037157;28;20412;-61
2021/07/19 06:50:09;;;;;;;4.80;1.85;;;;;;;;;;5034814;28;20135;-59
2021/07/19 06:52:35;;;;;;;8.68;2.22;;;;;;;;;;5036333;28;20028;-60
2021/07/19 06:55:00;;;;;;;6.47;2.33;;;;;;;;;;5036586;28;20025;-59
2021/07/19 06:57:25;;;;;;;10.48;2.20;;;;;;;;;;5036867;28;20708;-60
2021/07/19 06:59:56;;;;;;;11.10;1.92;;;;;;;;;;5034805;28;20033;-59
2021/07/19 07:02:24;;;;;;;7.78;2.33;;;;;;;;;;5035761;28;20496;-59
2021/07/19 07:04:55;;;;;;;13.70;2.20;;;;;;;;;;5035361;28;20067;-60
2021/07/19 07:07:23;;;;;;;5.65;2.22;;;;;;;;;;5037174;28;20037;-60
2021/07/19 07:09:49;;;;;;;6.53;2.05;;;;;;;;;;5035314;28;20032;-60
2021/07/19 07:12:17;;;;;;;5.72;1.95;;;;;;;;;;5037466;28;20021;-60
2021/07/19 07:14:42;;;;;;;11.90;1.92;;;;;;;;;;5049588;28;20047;-60
2021/07/19 07:17:10;;;;;;;7.78;2.38;;;;;;;;;;5036737;28;20028;-60
2021/07/19 07:19:35;;;;;;;9.30;2.50;;;;;;;;;;5034742;28;22006;-60
2021/07/19 07:22:03;;;;;;;6.10;1.90;;;;;;;;;;5035716;28;20040;-60
2021/07/19 07:24:32;;;;;;;4.68;2.00;;;;;;;;;;5037181;28;20178;-60
2021/07/19 07:27:00;;;;;;;5.93;1.80;;;;;;;;;;5035789;28;20032;-60
2021/07/19 07:29:26;;;;;;;8.15;2.03;;;;;;;;;;5022678;28;20123;-60
2021/07/19 07:31:51;;;;;;;7.22;1.98;;;;;;;;;;5020249;28;20059;-60
2021/07/19 07:34:22;;;;;;;4.10;1.70;;;;;;;;;;5042508;28;20136;-61
2021/07/19 07:36:48;;;;;;;6.90;1.42;;;;;;;;;;5036376;28;20063;-61
2021/07/19 07:39:13;;;;;;;5.68;1.83;;;;;;;;;;5036183;28;20115;-60
2021/07/19 07:41:41;;;;;;;7.18;2.17;;;;;;;;;;5036187;28;20036;-60
2021/07/19 07:44:11;;;;;;;8.88;1.80;;;;;;;;;;5033692;28;20078;-62
2021/07/19 07:46:38;;;;;;;6.35;2.08;;;;;;;;;;5034564;28;20093;-59
2021/07/19 07:49:05;;;;;;;8.10;1.77;;;;;;;;;;5049824;28;20070;-60
2021/07/19 07:51:31;;;;;;;5.30;1.90;;;;;;;;;;5043174;28;20060;-60
2021/07/19 07:53:59;;;;;;;7.82;1.80;;;;;;;;;;5035217;28;20147;-60
2021/07/19 07:56:25;;;;;;;8.75;1.73;;;;;;;;;;5034698;28;20051;-60
2021/07/19 07:58:51;;;;;;;6.57;1.60;;;;;;;;;;5032733;28;20037;-60
2021/07/19 08:01:16;;;;;;;7.50;1.40;;;;;;;;;;5037161;28;20028;-62
2021/07/19 08:03:41;;;;;;;6.18;1.80;;;;;;;;;;5034111;28;20025;-60
2021/07/19 08:06:10;;;;;;;4.07;1.70;;;;;;;;;;5051937;28;20161;-60
2021/07/19 08:08:36;;;;;;;5.43;1.63;;;;;;;;;;5033787;28;20210;-60
2021/07/19 08:11:06;;;;;;;5.13;1.60;;;;;;;;;;5017283;28;20045;-61
2021/07/19 08:13:32;;;;;;;3.03;1.58;;;;;;;;;;5032490;28;20068;-61
2021/07/19 08:15:57;;;;;;;7.90;1.88;;;;;;;;;;5033891;28;20128;-60
2021/07/19 08:18:23;;;;;;;1.48;1.30;;;;;;;;;;5035336;28;20025;-60
2021/07/19 08:20:51;;;;;;;5.15;1.60;;;;;;;;;;5049510;28;20053;-60
2021/07/19 08:23:16;;;;;;;8.15;1.88;;;;;;;;;;5024882;28;20043;-61
2021/07/19 08:25:44;;;;;;;5.30;1.88;;;;;;;;;;5035042;28;20072;-61
2021/07/19 08:28:12;;;;;;;7.85;1.70;;;;;;;;;;5033192;28;20102;-61
2021/07/19 08:30:42;;;;;;;6.82;1.77;;;;;;;;;;5034782;28;20028;-60
2021/07/19 08:33:08;;;;;;;4.38;1.38;;;;;;;;;;5033639;28;20043;-61
2021/07/19 08:35:38;;;;;;;6.57;1.95;;;;;;;;;;5035636;28;20024;-61
2021/07/19 08:38:11;;;;;;;3.35;1.73;;;;;;;;;;5034853;28;20020;-61
2021/07/19 08:40:37;;;;;;;3.92;1.50;;;;;;;;;;5033568;28;20032;-61
2021/07/19 08:43:04;;;;;;;8.57;1.92;;;;;;;;;;5033068;28;20032;-61
2021/07/19 08:45:30;;;;;;;3.58;1.50;;;;;;;;;;5035195;28;20574;-61
2021/07/19 08:47:58;;;;;;;3.80;1.50;;;;;;;;;;5033510;28;20040;-61
2021/07/19 08:50:24;;;;;;;5.80;1.58;;;;;;;;;;5049946;28;20040;-61
2021/07/19 08:52:53;;;;;;;2.92;1.27;;;;;;;;;;5034657;28;20079;-62
2021/07/19 08:55:19;;;;;;;3.00;1.73;;;;;;;;;;5032004;28;20091;-62
2021/07/19 08:57:49;;;;;;;3.75;1.17;;;;;;;;;;5034705;28;20025;-62
2021/07/19 09:00:23;;;;;;;3.83;1.30;;;;;;;;;;5039218;28;20040;-61
2021/07/19 09:02:51;;;;;;;7.72;1.35;;;;;;;;;;5033095;28;20098;-62
2021/07/19 09:05:20;;;;;;;4.82;1.98;;;;;;;;;;5034805;28;20012;-61
2021/07/19 09:07:45;;;;;;;3.20;1.48;;;;;;;;;;5038489;28;20140;-61
2021/07/19 09:10:14;;;;;;;6.50;1.50;;;;;;;;;;5033879;28;20032;-61
2021/07/19 09:12:43;;;;;;;4.93;1.75;;;;;;;;;;5032276;28;20044;-61
2021/07/19 09:15:12;;;;;;;2.75;1.30;;;;;;;;;;5029572;28;20028;-60
2021/07/19 09:17:40;;;;;;;3.03;1.52;;;;;;;;;;5034691;28;20079;-61
2021/07/19 09:20:09;;;;;;;6.00;1.25;;;;;;;;;;5049630;28;20504;-60
2021/07/19 09:22:35;;;;;;;8.68;1.20;;;;;;;;;;5033828;28;20044;-61
2021/07/19 09:25:16;;;;;;;4.63;1.40;;;;;;;;;;5034809;28;20118;-61
2021/07/19 09:27:52;;;;;;;6.63;1.02;;;;;;;;;;5033787;28;20040;-61
2021/07/19 09:30:22;;;;;;;3.90;1.30;;;;;;;;;;5034432;28;20033;-62
2021/07/19 09:33:13;;;;;;;4.88;1.33;;;;;;;;;;5049186;28;20036;-62
2021/07/19 09:35:41;;;;;;;5.72;1.27;;;;;;;;;;5033215;28;20048;-61
2021/07/19 09:38:08;;;;;;;5.95;1.60;;;;;;;;;;5040526;28;22099;-61
2021/07/19 09:40:35;;;;;;;3.90;1.60;;;;;;;;;;5037123;28;20779;-60
2021/07/19 09:43:11;;;;;;;5.68;1.58;;;;;;;;;;5038169;28;20025;-61
2021/07/19 09:45:37;;;;;;;8.50;1.83;;;;;;;;;;5024036;28;21066;-61
2021/07/19 09:48:06;;;;;;;4.63;1.65;;;;;;;;;;5037729;28;20037;-60
2021/07/19 09:50:47;;;;;;;4.63;1.63;;;;;;;;;;5038640;28;20111;-60
2021/07/19 09:53:12;;;;;;;4.85;2.03;;;;;;;;;;5037816;28;20066;-61
2021/07/19 09:55:40;;;;;;;6.80;2.20;;;;;;;;;;5020476;28;20171;-61
2021/07/19 09:58:06;;;;;;;6.20;2.33;;;;;;;;;;5037289;28;20029;-61
2021/07/19 10:00:34;;;;;;;6.05;2.20;;;;;;;;;;5017960;28;20115;-62
2021/07/19 10:03:11;;;;;;;6.20;2.53;;;;;;;;;;5038017;28;20068;-61
2021/07/19 10:05:39;;;;;;;5.65;1.98;;;;;;;;;;5034846;28;20032;-60
2021/07/19 10:08:08;;;;;;;4.90;2.13;;;;;;;;;;5036685;28;20041;-62
2021/07/19 10:10:37;;;;;;;5.20;1.92;;;;;;;;;;5053237;28;20029;-62
2021/07/19 10:13:07;;;;;;;4.90;2.28;;;;;;;;;;5050153;28;20565;-61
2021/07/19 10:15:33;;;;;;;3.75;1.75;;;;;;;;;;5038748;28;20041;-62
2021/07/19 10:18:07;;;;;;;3.63;1.83;;;;;;;;;;5037454;28;20052;-62
2021/07/19 10:20:37;;;;;;;6.60;2.13;;;;;;;;;;5035348;28;20048;-61
2021/07/19 10:23:06;;;;;;;4.93;2.17;;;;;;;;;;5035518;28;20051;-60
2021/07/19 10:25:38;;;;;;;4.32;2.50;;;;;;;;;;5035319;28;20120;-61
2021/07/19 10:28:07;;;;;;;2.80;2.03;;;;;;;;;;5036120;28;20032;-61
2021/07/19 10:30:34;;;;;;;7.32;2.20;;;;;;;;;;5036208;28;20051;-61
2021/07/19 10:33:01;;;;;;;8.88;2.10;;;;;;;;;;5037791;28;20017;-61
2021/07/19 10:35:27;;;;;;;4.50;2.22;;;;;;;;;;5019485;28;20055;-61
2021/07/19 10:37:57;;;;;;;8.50;2.65;;;;;;;;;;5036248;28;20017;-61
2021/07/19 10:40:28;;;;;;;4.18;2.17;;;;;;;;;;5036836;28;20361;-61
2021/07/19 10:43:06;;;;;;;4.30;2.30;;;;;;;;;;5033789;28;20032;-63
2021/07/19 10:45:43;;;;;;;4.55;2.35;;;;;;;;;;5034490;28;20040;-62
2021/07/19 10:48:11;;;;;;;4.47;2.58;;;;;;;;;;5040859;28;20235;-62
2021/07/19 10:50:40;;;;;;;3.65;2.92;;;;;;;;;;5033217;28;20032;-62
2021/07/19 10:53:17;;;;;;;4.28;2.83;;;;;;;;;;5041589;28;20491;-62
2021/07/19 10:55:56;;;;;;;3.65;2.72;;;;;;;;;;5038089;28;20039;-62
2021/07/19 10:58:28;;;;;;;4.68;3.25;;;;;;;;;;5050841;28;20090;-62
2021/07/19 11:00:56;;;;;;;4.50;3.55;;;;;;;;;;5038890;28;20037;-61
2021/07/19 11:03:22;;;;;;;4.30;2.92;;;;;;;;;;5038860;28;20128;-62
2021/07/19 11:05:51;;;;;;;4.13;3.13;;;;;;;;;;5034687;28;20032;-61
2021/07/19 11:08:22;;;;;;;3.78;3.17;;;;;;;;;;5033882;28;20037;-62
2021/07/19 11:10:51;;;;;;;5.35;3.05;;;;;;;;;;5035395;28;20043;-62
2021/07/19 11:13:26;;;;;;;4.25;3.30;;;;;;;;;;5031355;28;20028;-61
2021/07/19 11:15:51;;;;;;;5.38;2.75;;;;;;;;;;5034946;28;20057;-61
2021/07/19 11:18:18;;;;;;;4.18;3.10;;;;;;;;;;5033347;28;20577;-61
2021/07/19 11:20:47;;;;;;;4.28;3.08;;;;;;;;;;5041813;28;20136;-62
2021/07/19 11:23:16;;;;;;;3.35;2.90;;;;;;;;;;5034731;28;20521;-61
2021/07/19 11:25:46;;;;;;;4.95;3.00;;;;;;;;;;5033694;28;20108;-62
2021/07/19 11:28:40;;;;;;;5.88;3.80;;;;;;;;;;5033602;28;20056;-60
2021/07/19 11:31:10;;;;;;;4.75;3.72;;;;;;;;;;5034803;28;20040;-60
2021/07/19 11:33:47;;;;;;;7.05;3.85;;;;;;;;;;5033397;28;20052;-61
2021/07/19 11:36:17;;;;;;;7.82;3.53;;;;;;;;;;5037185;28;20024;-62
2021/07/19 11:38:45;;;;;;;9.30;4.43;;;;;;;;;;5034185;28;20103;-61
2021/07/19 11:41:20;;;;;;;7.00;4.53;;;;;;;;;;5033057;28;20036;-61
2021/07/19 11:43:46;;;;;;;6.70;4.18;;;;;;;;;;5032570;28;20109;-61
2021/07/19 11:46:34;;;;;;;10.13;4.15;;;;;;;;;;5033946;28;20041;-59
2021/07/19 11:49:12;;;;;;;6.07;3.70;;;;;;;;;;5034345;28;20037;-61
2021/07/19 11:51:42;;;;;;;7.53;4.32;;;;;;;;;;5049727;28;20029;-61
2021/07/19 11:54:10;;;;;;;7.88;4.07;;;;;;;;;;5034169;28;20041;-62
2021/07/19 11:56:40;;;;;;;6.03;3.88;;;;;;;;;;5034610;28;20144;-62
2021/07/19 11:59:07;;;;;;;6.07;4.05;;;;;;;;;;5030387;28;20103;-60
2021/07/19 12:01:35;;;;;;;7.70;3.88;;;;;;;;;;5033407;28;20040;-61
2021/07/19 12:04:04;;;;;;;5.45;3.17;;;;;;;;;;5032463;28;20052;-60
2021/07/19 12:06:30;;;;;;;9.07;4.05;;;;;;;;;;5033482;28;20876;-61
2021/07/19 12:08:57;;;;;;;8.57;4.30;;;;;;;;;;5033335;28;20029;-61
2021/07/19 12:11:30;;;;;;;6.50;3.90;;;;;;;;;;5033989;28;20025;-61
2021/07/19 12:13:57;;;;;;;7.85;4.03;;;;;;;;;;5020453;28;20032;-61
2021/07/19 12:16:31;;;;;;;6.32;3.75;;;;;;;;;;5035565;28;20463;-61
2021/07/19 12:18:57;;;;;;;5.45;3.17;;;;;;;;;;5035544;28;20247;-61
2021/07/19 12:21:25;;;;;;;4.35;3.83;;;;;;;;;;5035509;28;20083;-60
2021/07/19 12:23:54;;;;;;;8.88;4.18;;;;;;;;;;5050556;28;20495;-61
2021/07/19 12:26:33;;;;;;;5.53;3.75;;;;;;;;;;5036138;28;20112;-62
2021/07/19 12:29:00;;;;;;;8.57;4.30;;;;;;;;;;5032738;28;20118;-62
2021/07/19 12:31:37;;;;;;;7.72;3.60;;;;;;;;;;5035394;28;20430;-60
2021/07/19 12:34:10;;;;;;;5.40;4.00;;;;;;;;;;5039375;28;20085;-62
2021/07/19 12:36:36;;;;;;;6.57;3.90;;;;;;;;;;5040608;28;20112;-62
2021/07/19 12:39:06;;;;;;;6.35;4.18;;;;;;;;;;5036244;28;20107;-61
2021/07/19 12:41:35;;;;;;;8.70;4.90;;;;;;;;;;5033153;28;20522;-62
2021/07/19 12:44:08;;;;;;;7.18;4.38;;;;;;;;;;5022676;28;20021;-62
2021/07/19 12:46:33;;;;;;;;;;;;;;;;;;5041134;28;20028;-62
2021/07/19 12:48:59;;;;;;;6.10;4.33;;;;;;;;;;5033822;28;19920;-62
2021/07/19 12:51:27;;;;;;;7.55;5.30;;;;;;;;;;5039649;28;20025;-60
2021/07/19 12:54:01;;;;;;;8.82;4.93;;;;;;;;;;5035144;28;20032;-60
2021/07/19 12:56:27;;;;;;;9.32;4.90;;;;;;;;;;5042555;28;20074;-60
2021/07/19 12:58:56;;;;;;;6.05;4.78;;;;;;;;;;5037628;28;20575;-60
2021/07/19 13:01:29;;;;;;;7.55;5.10;;;;;;;;;;5033608;28;20028;-62
2021/07/19 13:03:59;;;;;;;6.97;4.75;;;;;;;;;;5035265;28;20036;-61
2021/07/19 13:06:25;;;;;;;6.75;5.28;;;;;;;;;;5035213;28;20067;-61
2021/07/19 13:08:50;;;;;;;6.78;4.88;;;;;;;;;;5032440;28;20708;-61
2021/07/19 13:11:18;;;;;;;7.10;4.45;;;;;;;;;;5010801;28;20032;-62
2021/07/19 13:13:46;;;;;;;8.18;4.88;;;;;;;;;;5026810;28;20105;-62
2021/07/19 13:16:12;;;;;;;8.32;4.15;;;;;;;;;;5037221;28;20031;-62
2021/07/19 13:18:37;;;;;;;9.27;4.80;;;;;;;;;;5041679;28;20069;-62
2021/07/19 13:21:09;;;;;;;7.60;4.22;;;;;;;;;;5027129;28;20041;-62
2021/07/19 13:23:35;;;;;;;7.22;4.68;;;;;;;;;;5024172;28;20111;-62
2021/07/19 13:26:05;;;;;;;5.78;4.75;;;;;;;;;;5037628;28;20029;-62
2021/07/19 13:28:31;;;;;;;6.40;4.88;;;;;;;;;;5037297;28;20838;-63
2021/07/19 13:31:00;;;;;;;8.23;4.70;;;;;;;;;;5037354;28;20032;-61
2021/07/19 13:33:26;;;;;;;8.30;4.97;;;;;;;;;;5053300;28;20040;-62
2021/07/19 13:35:52;;;;;;;11.68;4.90;;;;;;;;;;5023341;28;20032;-62
2021/07/19 13:38:22;;;;;;;7.93;4.78;;;;;;;;;;5025587;28;20032;-60
2021/07/19 13:40:52;;;;;;;9.13;4.40;;;;;;;;;;5036566;28;20108;-61
2021/07/19 13:43:21;;;;;;;8.70;4.88;;;;;;;;;;5035484;28;20025;-62
2021/07/19 13:45:50;;;;;;;8.55;4.53;;;;;;;;;;5023180;28;20045;-62
2021/07/19 13:48:16;;;;;;;7.20;4.70;;;;;;;;;;5032867;28;20036;-61
2021/07/19 13:50:44;;;;;;;8.25;5.25;;;;;;;;;;5038324;28;20048;-62
2021/07/19 13:53:11;;;;;;;8.98;4.88;;;;;;;;;;5037253;28;20033;-59
2021/07/19 13:55:41;;;;;;;10.27;5.15;;;;;;;;;;5036375;28;20121;-62
2021/07/19 13:58:07;;;;;;;7.78;4.90;;;;;;;;;;5037289;28;20071;-62
2021/07/19 14:00:38;;;;;;;8.38;4.80;;;;;;;;;;5035397;28;20037;-61
2021/07/19 14:03:04;;;;;;;6.82;4.63;;;;;;;;;;5036458;28;20712;-60
2021/07/19 14:05:31;;;;;;;9.30;4.97;;;;;;;;;;5037052;28;20089;-62
2021/07/19 14:07:56;;;;;;;8.13;4.75;;;;;;;;;;5034420;28;20475;-62
2021/07/19 14:10:24;;;;;;;8.25;4.40;;;;;;;;;;5027286;28;20024;-62
2021/07/19 14:12:49;;;;;;;9.38;4.18;;;;;;;;;;5036484;28;20045;-61
2021/07/19 14:15:20;;;;;;;4.93;3.95;;;;;;;;;;5040378;28;20036;-62
2021/07/19 14:17:48;;;;;;;5.32;4.22;;;;;;;;;;5036737;28;20033;-62
2021/07/19 14:20:14;;;;;;;4.95;4.13;;;;;;;;;;5034592;28;20126;-62
2021/07/19 14:22:39;;;;;;;6.32;4.65;;;;;;;;;;5023107;28;20160;-60
2021/07/19 14:25:06;;;;;;;5.75;4.35;;;;;;;;;;5034363;28;20025;-61
2021/07/19 14:27:34;;;;;;;7.80;4.53;;;;;;;;;;5036248;28;20048;-61
2021/07/19 14:29:59;;;;;;;5.90;4.15;;;;;;;;;;5018408;28;20025;-62
2021/07/19 14:32:24;;;;;;;8.60;5.13;;;;;;;;;;5040415;28;20109;-60
2021/07/19 14:34:50;;;;;;;5.82;4.15;;;;;;;;;;5034905;28;20078;-62
2021/07/19 14:37:16;;;;;;;7.93;4.80;;;;;;;;;;5023558;28;20120;-63
2021/07/19 14:39:44;;;;;;;6.90;4.57;;;;;;;;;;5036202;28;20515;-62
2021/07/19 14:42:12;;;;;;;7.50;5.22;;;;;;;;;;5036887;28;20024;-63
2021/07/19 14:44:37;;;;;;;6.25;4.47;;;;;;;;;;5039748;28;20841;-62
2021/07/19 14:47:03;;;;;;;6.07;4.45;;;;;;;;;;5038008;28;20056;-62
2021/07/19 14:49:31;;;;;;;5.85;5.05;;;;;;;;;;5021286;28;20056;-62
2021/07/19 14:51:57;;;;;;;8.73;4.90;;;;;;;;;;5039272;28;20040;-62
2021/07/19 14:54:22;;;;;;;7.18;5.63;;;;;;;;;;5036751;28;20048;-60